1939 Tropical Low NOT_NAMED (1939078S13148)


IBTrACS version v04r00. Visit IBTrACS website for data access.
Please direct all questions to the IBTrACS Q and A forum

Storm track - Intensity - Wind Radii - Intensity Data - Source Data - All data

Summary Information

Storm ID 1939078S13148
Start Mar 18 23Z
Landfall Mar 21 00Z, Mar 22 09Z, Mar 25 11Z
Max Intensity 25 kt (Mar 20 00Z)
End Mar 28 00Z
ATCF IDs
Track status Best track data.

Storm track plot

Map of storm track

Intensity plots

Map of storm track

Radial wind information

No radial wind information for this storm


Position and Intensity Table

BASIN ISO_TIME_________ NATURE LAT LON WMO PRES BOM PRES DS824 WIND DS824 PRES
degrees north degrees east mb mb kts mb
SP 1939-03-18 23:00:00 NR -13.10 148.20
SP 1939-03-19 00:00:00 TS -13.13 148.12
SP 03:00:00 TS -13.24 147.90
SP 06:00:00 TS -13.35 147.67
SP 09:00:00 TS -13.45 147.44
SP 11:00:00 TS -13.53 147.29
SP 12:00:00 TS -13.57 147.22
SP 15:00:00 TS -13.68 146.99
SP 18:00:00 TS -13.79 146.77
SP 21:00:00 TS -13.89 146.56
SP 23:00:00 TS -13.96 146.42 1002 1002
SP 1939-03-20 00:00:00 TS -13.99 146.36 25 1002
SP 03:00:00 TS -14.08 146.17
SP 06:00:00 TS -14.16 145.99
SP 09:00:00 TS -14.24 145.80
SP 11:00:00 TS -14.30 145.68
SP 12:00:00 TS -14.33 145.62
SP 15:00:00 TS -14.41 145.42
SP 18:00:00 TS -14.49 145.21
SP 21:00:00 TS -14.57 144.98
SP 23:00:00 TS -14.62 144.80
SP 1939-03-21 00:00:00 TS -14.66 144.69
SP 03:00:00 TS -14.75 144.31
SP 06:00:00 TS -14.85 143.90
SP 09:00:00 TS -14.95 143.47
SP 11:00:00 TS -15.01 143.18
SP 12:00:00 TS -15.04 143.04
SP 15:00:00 TS -15.13 142.64
SP 18:00:00 TS -15.21 142.27
SP 21:00:00 TS -15.28 141.95
SP 23:00:00 TS -15.33 141.79
SP 1939-03-22 00:00:00 TS -15.35 141.73
SP 03:00:00 TS -15.40 141.60
SP 06:00:00 TS -15.45 141.54
SP 09:00:00 TS -15.50 141.50
SP 11:00:00 TS -15.53 141.47
SP 12:00:00 TS -15.55 141.45
SP 15:00:00 TS -15.60 141.38
SP 18:00:00 TS -15.66 141.30
SP 21:00:00 TS -15.72 141.23
SP 23:00:00 TS -15.76 141.18
SP 1939-03-23 00:00:00 TS -15.78 141.15
SP 03:00:00 TS -15.83 141.07
SP 06:00:00 TS -15.87 140.99
SP 09:00:00 TS -15.91 140.91
SP 11:00:00 TS -15.94 140.86
SP 12:00:00 TS -15.95 140.84
SP 15:00:00 TS -16.00 140.77
SP 18:00:00 TS -16.05 140.70
SP 21:00:00 TS -16.11 140.64
SP 23:00:00 TS -16.16 140.61
SP 1939-03-24 00:00:00 TS -16.19 140.59
SP 03:00:00 TS -16.29 140.56
SP 06:00:00 TS -16.41 140.52
SP 09:00:00 TS -16.54 140.50
SP 11:00:00 TS -16.63 140.48
SP 12:00:00 TS -16.67 140.46
SP 15:00:00 TS -16.80 140.43
SP 18:00:00 TS -16.93 140.39
SP 21:00:00 TS -17.06 140.34
SP 23:00:00 TS -17.15 140.31
SP 1939-03-25 00:00:00 TS -17.20 140.29
SP 03:00:00 TS -17.34 140.23
SP 06:00:00 TS -17.49 140.17
SP 09:00:00 TS -17.63 140.11
SP 11:00:00 TS -17.71 140.06
SP 12:00:00 TS -17.76 140.03
SP 15:00:00 TS -17.87 139.95
SP 17:00:00 TS -17.94 139.89
SP 18:00:00 TS -17.97 139.86
SP 21:00:00 TS -18.09 139.77
SP 23:00:00 TS -18.17 139.71
SP 1939-03-26 00:00:00 TS -18.24 139.67
SP 03:00:00 NR -18.38 139.56
SP 06:00:00 NR -18.48 139.44
SP 09:00:00 NR -18.58 139.31
SP 11:00:00 NR -18.65 139.22
SP 12:00:00 NR -18.68 139.18
SP 15:00:00 NR -18.78 139.06
SP 18:00:00 NR -18.86 138.92
SP 21:00:00 NR -18.95 138.74
SP 23:00:00 NR -19.00 138.60
SP 1939-03-27 00:00:00 NR -19.03 138.52
SP 03:00:00 NR -19.10 138.23
SP 06:00:00 NR -19.17 137.90
SP 09:00:00 NR -19.23 137.54
SP 11:00:00 NR -19.28 137.29
SP 12:00:00 NR -19.30 137.17
SP 15:00:00 NR -19.36 136.79
SP 18:00:00 NR -19.43 136.42
SP 21:00:00 NR -19.49 136.05
SP 23:00:00 NR -19.53 135.81
SP 23:30:00 NR -19.50 135.80
SP 1939-03-28 00:00:00 TS -19.50 135.80

Source Information

Agency Information
USA
TOKYO
CMA
HKO
NEWDELHI
REUNION
BOM IDCKMSTM0S.csv:Line=998:unnamed
NADI
WELLINGTON
DS824 aus_area.dat:98:NOT NAMED
TD9636 cons_worldwide_trop_cyclone_18710101-19891231-006:Line=2236
TD9635
NEUMANN
MLC

All available IBTrACS Data

SEASON BASIN SUBBASIN ISO_TIME_________ NATURE LAT LON WMO PRES WMO AGENCY DIST2LAND LANDFALL IFLAG USA SSHS BOM LAT BOM LON BOM PRES BOM PRES_METHOD DS824 LAT DS824 LON DS824 STAGE DS824 WIND DS824 PRES TD9636 LAT TD9636 LON TD9636 STAGE STORM SPEED STORM DIR
Year degrees north degrees east mb km km 1 degrees north degrees east mb degrees north degrees east kts mb degrees north degrees east kts degrees
1939 SP EA 1939-03-18 23:00:00 NR -13.10 148.20 bom 325 324 ______O___O___ -1 -13.10 148.20 -13.10 148.20 7 5 250
1939 SP EA 1939-03-19 00:00:00 TS -13.13 148.12 324 324 ______P__OP___ -1 -13.13 148.12 -13.10 148.10 TC -13.14 148.14 7 5 245
1939 SP EA 03:00:00 TS -13.24 147.90 336 321 ______P__PP___ -1 -13.24 147.88 -13.20 147.86 TC -13.26 147.94 7 5 244
1939 SP EA 06:00:00 TS -13.35 147.67 321 297 ______P__PP___ -1 -13.34 147.64 -13.31 147.62 TC -13.39 147.75 7 5 244
1939 SP EA 09:00:00 TS -13.45 147.44 281 273 ______P__PP___ -1 -13.44 147.40 -13.41 147.38 TC -13.51 147.54 7 5 244
1939 SP EA 11:00:00 TS -13.53 147.29 273 257 ______P__PO___ -1 -13.51 147.25 -13.48 147.23 TC -13.60 147.40 7 5 243
1939 SP EA 12:00:00 TS -13.57 147.22 257 233 ______P__PP___ -1 -13.54 147.17 -13.51 147.15 TC -13.64 147.33 7 5 243
1939 SP EA 15:00:00 TS -13.68 146.99 233 210 ______P__PP___ -1 -13.64 146.95 -13.61 146.92 TC -13.78 147.10 7 5 243
1939 SP EA 18:00:00 TS -13.79 146.77 210 186 ______P__PP___ -1 -13.74 146.73 -13.71 146.70 TC -13.91 146.87 7 5 243
1939 SP EA 21:00:00 TS -13.89 146.56 186 163 ______P__PP___ -1 -13.84 146.53 -13.80 146.50 TC -14.03 146.65 7 5 243
1939 SP EA 23:00:00 TS -13.96 146.42 1002 bom 163 163 ______O__PO___ -1 -13.90 146.40 1002 4 -13.87 146.36 TC -14.10 146.50 7 4 243
1939 SP EA 1939-03-20 00:00:00 TS -13.99 146.36 163 139 ______P__OP___ -1 -13.93 146.34 -13.90 146.30 TC 25 1002 -14.13 146.43 7 4 244
1939 SP EA 03:00:00 TS -14.08 146.17 139 116 ______P__PP___ -1 -14.02 146.16 -13.99 146.12 TC -14.22 146.23 7 4 244
1939 SP EA 06:00:00 TS -14.16 145.99 116 101 ______P__PP___ -1 -14.12 145.98 -14.09 145.94 TC -14.29 146.03 7 4 245
1939 SP EA 09:00:00 TS -14.24 145.80 101 86 ______P__PP___ -1 -14.20 145.81 -14.18 145.76 TC -14.36 145.84 7 4 246
1939 SP EA 11:00:00 TS -14.30 145.68 86 79 ______P__PO___ -1 -14.26 145.69 -14.23 145.64 TC -14.40 145.70 7 4 246
1939 SP EA 12:00:00 TS -14.33 145.62 79 59 ______P__PP___ -1 -14.29 145.63 -14.26 145.58 TC -14.42 145.64 7 4 247
1939 SP EA 15:00:00 TS -14.41 145.42 59 39 ______P__PP___ -1 -14.38 145.43 -14.35 145.39 TC -14.49 145.45 7 4 248
1939 SP EA 18:00:00 TS -14.49 145.21 39 15 ______P__PP___ -1 -14.46 145.22 -14.43 145.18 TC -14.56 145.24 7 5 250
1939 SP EA 21:00:00 TS -14.57 144.98 15 10 ______P__PP___ -1 -14.55 144.98 -14.52 144.96 TC -14.64 144.99 7 5 251
1939 SP EA 23:00:00 TS -14.62 144.80 bom 10 0 ______O__PO___ -1 -14.60 144.80 -14.57 144.79 TC -14.70 144.80 7 6 252
1939 SP EA 1939-03-21 00:00:00 TS -14.66 144.69 0 0 ______P__OP___ -1 -14.63 144.68 -14.60 144.70 TC -14.74 144.69 7 7 255
1939 SP EA 03:00:00 TS -14.75 144.31 0 0 ______P__PP___ -1 -14.71 144.28 -14.69 144.33 TC -14.86 144.32 7 8 256
1939 SP EA 06:00:00 TS -14.85 143.90 0 0 ______P__PP___ -1 -14.80 143.86 -14.77 143.93 TC -14.99 143.91 7 8 256
1939 SP EA 09:00:00 TS -14.95 143.47 0 0 ______P__PP___ -1 -14.88 143.42 -14.85 143.50 TC -15.12 143.48 7 8 257
1939 SP EA 11:00:00 TS -15.01 143.18 0 0 ______P__PO___ -1 -14.93 143.13 -14.90 143.22 TC -15.20 143.20 7 8 257
1939 SP EA 12:00:00 TS -15.04 143.04 0 0 ______P__PP___ -1 -14.96 142.99 -14.93 143.08 TC -15.24 143.06 7 8 258
1939 SP EA 15:00:00 TS -15.13 142.64 0 0 ______P__PP___ -1 -15.03 142.59 -15.00 142.68 TC -15.35 142.64 7 8 257
1939 SP EA 18:00:00 TS -15.21 142.27 0 0 ______P__PP___ -1 -15.10 142.23 -15.07 142.32 TC -15.46 142.24 7 7 257
1939 SP EA 21:00:00 TS -15.28 141.95 0 0 ______P__PP___ -1 -15.16 141.94 -15.14 142.02 TC -15.55 141.89 7 6 256
1939 SP EA 23:00:00 TS -15.33 141.79 bom 0 0 ______O__PO___ -1 -15.20 141.80 -15.18 141.86 TC -15.60 141.70 7 5 254
1939 SP EA 1939-03-22 00:00:00 TS -15.35 141.73 0 0 ______P__OP___ -1 -15.22 141.76 -15.20 141.80 TC -15.62 141.62 7 3 247
1939 SP EA 03:00:00 TS -15.40 141.60 0 0 ______P__PP___ -1 -15.27 141.67 -15.25 141.70 TC -15.68 141.44 7 2 241
1939 SP EA 06:00:00 TS -15.45 141.54 10 0 ______P__PP___ -1 -15.32 141.64 -15.30 141.65 TC -15.72 141.33 7 1 228
1939 SP EA 09:00:00 TS -15.50 141.50 0 0 ______P__PP___ -1 -15.37 141.62 -15.35 141.62 TC -15.77 141.25 7 1 221
1939 SP EA 11:00:00 TS -15.53 141.47 bom 0 0 ______O__PO___ -1 -15.40 141.60 -15.38 141.61 TC -15.80 141.20 7 1 222
1939 SP EA 12:00:00 TS -15.55 141.45 10 10 ______P__OP___ -1 -15.42 141.58 -15.40 141.60 TC -15.82 141.17 7 2 230
1939 SP EA 15:00:00 TS -15.60 141.38 10 10 ______P__PP___ -1 -15.47 141.51 -15.45 141.53 TC -15.89 141.08 7 2 231
1939 SP EA 18:00:00 TS -15.66 141.30 21 21 ______P__PP___ -1 -15.52 141.43 -15.50 141.46 TC -15.97 141.01 7 2 230
1939 SP EA 21:00:00 TS -15.72 141.23 30 24 ______P__PP___ -1 -15.57 141.35 -15.55 141.38 TC -16.05 140.94 7 2 230
1939 SP EA 23:00:00 TS -15.76 141.18 bom 24 24 ______O__PO___ -1 -15.60 141.30 -15.58 141.33 TC -16.10 140.90 7 2 230
1939 SP EA 1939-03-23 00:00:00 TS -15.78 141.15 33 33 ______P__OP___ -1 -15.61 141.27 -15.60 141.30 TC -16.12 140.87 7 2 239
1939 SP EA 03:00:00 TS -15.83 141.07 33 33 ______P__PP___ -1 -15.65 141.19 -15.63 141.22 TC -16.20 140.79 7 2 239
1939 SP EA 06:00:00 TS -15.87 140.99 42 42 ______P__PP___ -1 -15.67 141.11 -15.66 141.14 TC -16.28 140.72 7 2 241
1939 SP EA 09:00:00 TS -15.91 140.91 53 53 ______P__PP___ -1 -15.70 141.03 -15.69 141.06 TC -16.35 140.64 7 2 240
1939 SP EA 11:00:00 TS -15.94 140.86 53 53 ______P__PO___ -1 -15.72 140.98 -15.70 141.01 TC -16.40 140.60 7 2 238
1939 SP EA 12:00:00 TS -15.95 140.84 64 64 ______P__PP___ -1 -15.73 140.95 -15.71 140.98 TC -16.42 140.58 7 2 238
1939 SP EA 15:00:00 TS -16.00 140.77 64 64 ______P__PP___ -1 -15.76 140.88 -15.74 140.90 TC -16.48 140.52 7 2 235
1939 SP EA 18:00:00 TS -16.05 140.70 74 72 ______P__PP___ -1 -15.80 140.81 -15.78 140.83 TC -16.55 140.47 7 2 227
1939 SP EA 21:00:00 TS -16.11 140.64 81 78 ______P__PP___ -1 -15.86 140.74 -15.83 140.76 TC -16.63 140.42 7 2 218
1939 SP EA 23:00:00 TS -16.16 140.61 bom 78 78 ______O__PO___ -1 -15.90 140.70 -15.88 140.72 TC -16.70 140.40 7 2 214
1939 SP EA 1939-03-24 00:00:00 TS -16.19 140.59 78 75 ______P__OP___ -1 -15.92 140.68 -15.90 140.70 TC -16.74 140.39 7 2 204
1939 SP EA 03:00:00 TS -16.29 140.56 75 75 ______P__PP___ -1 -16.01 140.64 -15.99 140.66 TC -16.88 140.36 7 2 197
1939 SP EA 06:00:00 TS -16.41 140.52 81 77 ______P__PP___ -1 -16.10 140.61 -16.10 140.62 TC -17.04 140.34 7 3 194
1939 SP EA 09:00:00 TS -16.54 140.50 77 69 ______P__PP___ -1 -16.21 140.58 -16.22 140.59 TC -17.20 140.32 7 3 188
1939 SP EA 11:00:00 TS -16.63 140.48 69 62 ______P__PO___ -1 -16.28 140.56 -16.30 140.57 TC -17.30 140.30 7 3 199
1939 SP EA 12:00:00 TS -16.67 140.46 62 62 ______P__PP___ -1 -16.32 140.55 -16.34 140.56 TC -17.35 140.29 7 3 194
1939 SP EA 15:00:00 TS -16.80 140.43 67 64 ______P__PP___ -1 -16.44 140.52 -16.48 140.53 TC -17.47 140.24 7 3 197
1939 SP EA 18:00:00 TS -16.93 140.39 64 63 ______P__PP___ -1 -16.57 140.48 -16.62 140.49 TC -17.60 140.18 7 3 198
1939 SP EA 21:00:00 TS -17.06 140.34 64 64 ______P__PP___ -1 -16.71 140.44 -16.76 140.45 TC -17.72 140.13 7 3 198
1939 SP EA 23:00:00 TS -17.15 140.31 bom 54 54 ______O__PO___ -1 -16.80 140.40 -16.85 140.42 TC -17.80 140.10 7 3 197
1939 SP EA 1939-03-25 00:00:00 TS -17.20 140.29 54 44 ______P__OP___ -1 -16.85 140.37 -16.90 140.40 TC -17.84 140.09 7 3 200
1939 SP EA 03:00:00 TS -17.34 140.23 44 22 ______P__PP___ -1 -17.01 140.29 -17.04 140.33 TC -17.98 140.07 7 3 202
1939 SP EA 06:00:00 TS -17.49 140.17 22 11 ______P__PP___ -1 -17.17 140.20 -17.18 140.26 TC -18.11 140.06 7 3 203
1939 SP EA 09:00:00 TS -17.63 140.11 11 0 ______P__PP___ -1 -17.33 140.11 -17.32 140.18 TC -18.23 140.03 7 3 206
1939 SP EA 11:00:00 TS -17.71 140.06 0 0 ______P__PO___ -1 -17.43 140.05 -17.41 140.12 TC -18.30 140.00 7 3 208
1939 SP EA 12:00:00 TS -17.76 140.03 0 0 ______P__PP___ -1 -17.48 140.02 -17.46 140.09 TC -18.33 139.98 7 3 213
1939 SP EA 15:00:00 TS -17.87 139.95 0 0 ______P__PP___ -1 -17.62 139.94 -17.58 140.00 TC -18.42 139.90 7 3 216
1939 SP EA 17:00:00 TS -17.94 139.89 bom 0 0 ______O__PP___ -1 -17.70 139.90 -17.66 139.93 TC -18.47 139.83 7 3 219
1939 SP EA 18:00:00 TS -17.97 139.86 0 0 ______P__OP___ -1 -17.74 139.88 -17.70 139.90 TC -18.49 139.79 7 3 218
1939 SP EA 21:00:00 TS -18.09 139.77 0 0 ______P__PP___ -1 -17.83 139.84 -17.80 139.81 TC -18.56 139.68 7 3 215
1939 SP EA 23:00:00 TS -18.17 139.71 bom 0 0 ______O__PO___ -1 -17.90 139.80 -17.87 139.74 TC -18.60 139.60 7 4 214
1939 SP EA 1939-03-26 00:00:00 TS -18.24 139.67 0 0 ______P__OP___ -1 -17.94 139.78 -17.90 139.70 TC -18.63 139.56 7 4 213
1939 SP EA 03:00:00 NR -18.38 139.56 0 0 ______P__PP___ -1 -18.05 139.69 -18.00 139.57 TC -18.71 139.44 7 3 222
1939 SP EA 06:00:00 NR -18.48 139.44 0 0 ______P__PP___ -1 -18.18 139.58 -18.09 139.42 TC -18.78 139.31 7 3 229
1939 SP EA 09:00:00 NR -18.58 139.31 0 0 ______P__PP___ -1 -18.31 139.45 -18.19 139.25 TC -18.86 139.18 7 3 231
1939 SP EA 11:00:00 NR -18.65 139.22 0 0 ______P__PO___ -1 -18.40 139.35 -18.26 139.13 TC -18.90 139.10 7 3 231
1939 SP EA 12:00:00 NR -18.68 139.18 0 0 ______P__PP___ -1 -18.44 139.29 -18.29 139.06 TC -18.92 139.08 7 3 231
1939 SP EA 15:00:00 NR -18.78 139.06 0 0 ______P__PP___ -1 -18.58 139.11 -18.39 138.85 TC -18.97 139.01 7 3 234
1939 SP EA 18:00:00 NR -18.86 138.92 0 0 ______P__PP___ -1 -18.70 138.90 -18.49 138.63 TC -19.02 138.94 7 3 240
1939 SP EA 21:00:00 NR -18.95 138.74 0 0 ______P__PP___ -1 -18.82 138.67 -18.59 138.39 TC -19.07 138.82 7 4 246
1939 SP EA 23:00:00 NR -19.00 138.60 bom 0 0 ______O__PO___ -1 -18.90 138.50 -18.66 138.22 TC -19.10 138.70 7 5 250
1939 SP EA 1939-03-27 00:00:00 NR -19.03 138.52 0 0 ______P__PP___ -1 -18.94 138.41 -18.70 138.14 TC -19.12 138.62 7 6 255
1939 SP EA 03:00:00 NR -19.10 138.23 0 0 ______P__PP___ -1 -19.03 138.13 -18.80 137.87 TC -19.16 138.32 7 6 257
1939 SP EA 06:00:00 NR -19.17 137.90 0 0 ______P__PP___ -1 -19.12 137.83 -18.90 137.59 TC -19.21 137.97 7 7 258
1939 SP EA 09:00:00 NR -19.23 137.54 0 0 ______P__PP___ -1 -19.20 137.51 -19.00 137.31 TC -19.26 137.57 7 7 259
1939 SP EA 11:00:00 NR -19.28 137.29 0 0 ______P__PO___ -1 -19.25 137.28 -19.07 137.12 TC -19.30 137.30 7 7 259
1939 SP EA 12:00:00 NR -19.30 137.17 0 0 ______P__PP___ -1 -19.27 137.17 -19.10 137.02 TC -19.32 137.16 7 7 259
1939 SP EA 15:00:00 NR -19.36 136.79 0 0 ______P__PP___ -1 -19.34 136.82 -19.20 136.72 TC -19.39 136.76 7 7 260
1939 SP EA 18:00:00 NR -19.43 136.42 0 0 ______P__PP___ -1 -19.40 136.47 -19.30 136.42 TC -19.47 136.36 7 7 260
1939 SP EA 21:00:00 NR -19.49 136.05 0 0 ______P__PP___ -1 -19.45 136.10 -19.40 136.11 TC -19.55 135.96 7 7 260
1939 SP EA 23:00:00 NR -19.53 135.81 0 0 ______P__PO___ -1 -19.49 135.86 -19.47 135.90 TC -19.60 135.70 7 6 268
1939 SP EA 23:30:00 NR -19.50 135.80 bom 0 0 ______O__P____ -1 -19.50 135.80 -19.48 135.85 TC 7 2 0
1939 SP EA 1939-03-28 00:00:00 TS -19.50 135.80 0 _________O____ -1 -19.50 135.80 TC 7 0 0